createdAt,value
2022-12-05T00:03:06.377Z,89.09
2022-12-05T00:08:09.840Z,89.10
2022-12-05T00:13:13.306Z,88.92
2022-12-05T00:18:16.719Z,88.76
2022-12-05T00:23:20.029Z,88.95
2022-12-05T00:28:23.444Z,88.85
2022-12-05T00:33:26.856Z,88.86
2022-12-05T00:38:30.370Z,88.96
2022-12-05T00:43:34.198Z,88.86
2022-12-05T00:48:38.017Z,88.79
2022-12-05T00:53:42.145Z,88.90
2022-12-05T00:58:46.275Z,88.80
2022-12-05T01:03:51.644Z,88.64
2022-12-05T01:08:56.544Z,88.81
2022-12-05T01:14:00.202Z,88.65
2022-12-05T01:19:09.351Z,88.84
2022-12-05T01:24:12.866Z,88.88
2022-12-05T01:29:18.934Z,88.77
2022-12-05T01:34:22.767Z,88.90
2022-12-05T01:39:26.589Z,88.91
2022-12-05T01:44:29.898Z,88.83
2022-12-05T01:49:42.486Z,88.82
2022-12-05T01:54:48.482Z,88.55
2022-12-05T01:59:56.241Z,88.75
2022-12-05T02:05:14.988Z,88.84
2022-12-05T02:10:19.117Z,88.85
2022-12-05T02:15:24.987Z,88.91
2022-12-05T02:21:39.468Z,88.66
2022-12-05T02:27:01.004Z,88.70
2022-12-05T02:32:12.814Z,88.91
2022-12-05T02:37:23.297Z,88.83
2022-12-05T02:42:42.377Z,88.85
2022-12-05T02:47:53.256Z,88.98
2022-12-05T02:53:01.281Z,89.02
2022-12-05T02:58:11.660Z,89.03
2022-12-05T03:03:18.672Z,89.08
2022-12-05T03:08:28.725Z,89.18
2022-12-05T03:13:46.376Z,88.89
2022-12-05T03:18:57.055Z,89.04
2022-12-05T03:24:07.072Z,89.17
2022-12-05T03:29:37.063Z,89.03
2022-12-05T03:34:51.941Z,88.92
2022-12-05T03:40:19.742Z,89.01
2022-12-05T03:45:32.150Z,89.13
2022-12-05T03:50:40.274Z,89.19
2022-12-05T03:55:47.783Z,88.98
2022-12-05T04:00:54.504Z,88.96
2022-12-05T04:06:01.819Z,88.86
2022-12-05T04:11:16.046Z,88.96
2022-12-05T04:16:50.282Z,88.76
2022-12-05T04:21:57.370Z,88.86
2022-12-05T04:27:10.931Z,88.88
2022-12-05T04:32:15.063Z,88.83
2022-12-05T04:37:24.246Z,88.93
2022-12-05T04:42:31.625Z,88.99
2022-12-05T04:47:54.487Z,88.94
2022-12-05T04:52:59.860Z,88.83
2022-12-05T04:58:18.308Z,88.56
2022-12-05T05:03:28.387Z,88.83
2022-12-05T05:08:31.795Z,88.94
2022-12-05T05:13:35.411Z,88.92
2022-12-05T05:18:38.823Z,89.04
2022-12-05T05:23:42.133Z,88.87
2022-12-05T05:28:46.776Z,89.12
2022-12-05T05:33:55.490Z,89.13
2022-12-05T05:39:01.423Z,89.18
2022-12-05T05:44:06.641Z,89.16
2022-12-05T05:49:10.989Z,89.47
2022-12-05T05:54:14.080Z,89.15
2022-12-05T05:59:17.500Z,89.13
2022-12-05T06:04:20.966Z,89.15
2022-12-05T06:09:24.526Z,89.36
2022-12-05T06:14:27.938Z,89.31
2022-12-05T06:19:31.356Z,88.98
2022-12-05T06:24:34.662Z,89.08
2022-12-05T06:29:38.178Z,88.96
2022-12-05T06:34:41.590Z,88.98
2022-12-05T06:39:45.004Z,89.10
2022-12-05T06:44:48.420Z,89.20
2022-12-05T06:49:51.833Z,89.35
2022-12-05T06:54:55.149Z,89.45
2022-12-05T07:00:16.994Z,89.27
2022-12-05T07:05:20.605Z,89.29
2022-12-05T07:10:23.918Z,89.13
2022-12-05T07:15:27.249Z,89.12
2022-12-05T07:21:03.446Z,89.06
2022-12-05T07:25:54.838Z,89.27
2022-12-05T07:31:19.099Z,89.27
2022-12-05T07:36:24.098Z,89.13
2022-12-05T07:41:30.467Z,89.16
2022-12-05T07:46:33.681Z,89.32
2022-12-05T07:51:37.606Z,89.35
2022-12-05T07:56:46.171Z,89.24
2022-12-05T08:01:51.287Z,89.35
2022-12-05T08:06:54.810Z,89.18
2022-12-05T08:11:58.223Z,89.20
2022-12-05T08:17:01.784Z,89.21
2022-12-05T08:22:05.457Z,89.37
2022-12-05T08:27:08.668Z,89.41
2022-12-05T08:32:12.079Z,89.21
2022-12-05T08:37:15.604Z,89.37
2022-12-05T08:42:19.007Z,89.41
2022-12-05T08:47:22.421Z,89.36
2022-12-05T08:52:25.937Z,89.40
2022-12-05T08:57:29.349Z,89.39
2022-12-05T09:02:34.347Z,89.27
2022-12-05T09:07:38.248Z,89.25
2022-12-05T09:12:41.739Z,89.06
2022-12-05T09:17:45.564Z,89.02
2022-12-05T09:22:48.974Z,89.18
2022-12-05T09:27:54.847Z,89.07
2022-12-05T09:32:58.157Z,89.09
2022-12-05T09:38:01.568Z,88.95
2022-12-05T09:43:08.669Z,88.88
2022-12-05T09:48:15.849Z,88.69
2022-12-05T09:53:34.338Z,88.91
2022-12-05T09:58:46.863Z,88.69
2022-12-05T10:04:24.203Z,88.85
2022-12-05T10:09:51.035Z,88.94
2022-12-05T10:15:16.261Z,88.89
2022-12-05T10:20:27.352Z,88.97
2022-12-05T10:25:33.735Z,88.91
2022-12-05T10:30:42.228Z,88.43
2022-12-05T10:35:45.578Z,88.43
2022-12-05T10:40:53.087Z,88.65
2022-12-05T10:45:56.908Z,88.36
2022-12-05T10:51:01.246Z,88.33
2022-12-05T10:56:31.344Z,88.41
2022-12-05T11:01:37.507Z,88.41
2022-12-05T11:07:00.543Z,88.69
2022-12-05T11:12:15.006Z,88.67
2022-12-05T11:17:25.794Z,88.48
2022-12-05T11:22:34.636Z,88.34
2022-12-05T11:27:37.946Z,88.20
2022-12-05T11:32:41.254Z,88.19
2022-12-05T11:38:03.410Z,88.03
2022-12-05T11:43:33.034Z,87.96
2022-12-05T11:49:03.377Z,87.97
2022-12-05T11:54:09.560Z,87.76
2022-12-05T11:59:50.860Z,88.01
2022-12-05T12:05:14.345Z,88.03
2022-12-05T12:10:37.518Z,87.67
2022-12-05T12:16:22.338Z,87.76
2022-12-05T12:22:07.802Z,87.66
2022-12-05T12:27:47.666Z,87.74
2022-12-05T12:33:11.986Z,87.80
2022-12-05T12:38:51.285Z,87.76
2022-12-05T12:43:58.143Z,87.76
2022-12-05T12:49:28.670Z,87.71
2022-12-05T12:55:07.313Z,87.69
2022-12-05T13:00:32.634Z,87.87
2022-12-05T13:05:42.702Z,87.62
2022-12-05T13:10:48.485Z,87.70
2022-12-05T13:15:55.880Z,87.87
2022-12-05T13:21:02.156Z,87.62
2022-12-05T13:26:11.307Z,87.57
2022-12-05T13:31:17.309Z,87.77
2022-12-05T13:36:42.091Z,87.73
2022-12-05T13:42:05.578Z,87.76
2022-12-05T13:47:33.977Z,87.66
2022-12-05T13:53:06.060Z,87.89
2022-12-05T13:58:24.538Z,88.00
2022-12-05T14:03:34.185Z,87.80
2022-12-05T14:08:40.773Z,87.83
2022-12-05T14:13:45.503Z,87.85
2022-12-05T14:19:37.263Z,87.78
2022-12-05T14:24:57.778Z,87.76
2022-12-05T14:30:34.014Z,87.79
2022-12-05T14:35:55.600Z,87.81
2022-12-05T14:41:15.194Z,87.87
2022-12-05T14:46:31.439Z,87.73
2022-12-05T14:51:34.823Z,87.73
2022-12-05T14:56:44.345Z,87.59
2022-12-05T15:01:52.779Z,87.67
2022-12-05T15:07:03.489Z,87.51
2022-12-05T15:12:22.775Z,87.57
2022-12-05T15:17:30.796Z,87.66
2022-12-05T15:22:37.284Z,87.73
2022-12-05T15:27:40.593Z,87.81
2022-12-05T15:32:44.823Z,87.73
2022-12-05T15:37:58.579Z,87.71
2022-12-05T15:43:01.993Z,87.64
2022-12-05T15:48:08.482Z,88.00
2022-12-05T15:53:14.737Z,87.91
2022-12-05T15:58:27.717Z,87.89
2022-12-05T16:03:46.879Z,87.99
2022-12-05T16:08:51.886Z,87.98
2022-12-05T16:13:58.405Z,88.13
2022-12-05T16:19:25.075Z,87.83
2022-12-05T16:24:31.582Z,87.84
2022-12-05T16:29:36.102Z,87.86
2022-12-05T16:34:39.405Z,87.98
2022-12-05T16:39:46.314Z,87.76
2022-12-05T16:45:05.585Z,87.88
2022-12-05T16:50:44.532Z,87.95
2022-12-05T16:55:48.870Z,88.22
2022-12-05T17:00:52.588Z,87.95
2022-12-05T17:05:56.410Z,87.94
2022-12-05T17:11:02.119Z,88.07
2022-12-05T17:16:05.614Z,88.27
2022-12-05T17:21:18.120Z,88.21
2022-12-05T17:26:22.862Z,88.29
2022-12-05T17:31:26.905Z,88.28
2022-12-05T17:36:30.308Z,88.18
2022-12-05T17:41:33.822Z,88.18
2022-12-05T17:46:37.188Z,87.95
2022-12-05T17:52:05.519Z,88.10
2022-12-05T17:57:05.258Z,87.97
2022-12-05T18:02:11.963Z,87.97
2022-12-05T18:07:15.872Z,88.25
2022-12-05T18:12:19.155Z,88.24
2022-12-05T18:17:23.619Z,88.20
2022-12-05T18:22:27.852Z,88.39
2022-12-05T18:27:31.498Z,88.42
2022-12-05T18:32:34.894Z,88.29
2022-12-05T18:37:39.012Z,88.12
2022-12-05T18:42:42.628Z,88.25
2022-12-05T18:47:46.043Z,88.27
2022-12-05T18:52:49.663Z,88.27
2022-12-05T18:57:52.874Z,88.25
2022-12-05T19:02:56.386Z,88.26
2022-12-05T19:08:00.187Z,88.05
2022-12-05T19:13:03.722Z,88.11
2022-12-05T19:18:07.036Z,88.24
2022-12-05T19:23:10.448Z,88.23
2022-12-05T19:28:14.576Z,88.27
2022-12-05T19:33:17.887Z,88.33
2022-12-05T19:38:21.199Z,88.29
2022-12-05T19:43:24.609Z,88.36
2022-12-05T19:48:29.662Z,88.23
2022-12-05T19:53:36.662Z,88.36
2022-12-05T19:58:40.380Z,88.40
2022-12-05T20:03:50.961Z,88.26
2022-12-05T20:08:54.787Z,88.37
2022-12-05T20:14:00.413Z,88.47
2022-12-05T20:19:04.887Z,88.39
2022-12-05T20:24:09.789Z,88.41
2022-12-05T20:29:14.497Z,88.50
2022-12-05T20:34:19.338Z,88.38
2022-12-05T20:39:25.096Z,88.43
2022-12-05T20:44:28.616Z,88.40
2022-12-05T20:49:32.021Z,88.36
2022-12-05T20:54:35.538Z,88.38
2022-12-05T20:59:39.157Z,88.42
2022-12-05T21:04:42.672Z,88.38
2022-12-05T21:09:46.190Z,88.27
2022-12-05T21:14:49.569Z,88.24
2022-12-05T21:19:53.113Z,88.60
2022-12-05T21:24:56.631Z,88.41
2022-12-05T21:30:00.519Z,88.55
2022-12-05T21:35:04.685Z,88.44
2022-12-05T21:40:09.123Z,88.47
2022-12-05T21:45:12.330Z,88.69
2022-12-05T21:50:15.745Z,88.59
2022-12-05T21:55:19.258Z,88.67
2022-12-05T22:00:22.571Z,88.78
2022-12-05T22:05:25.981Z,88.70
2022-12-05T22:10:29.294Z,88.58
2022-12-05T22:15:32.816Z,88.79
2022-12-05T22:20:36.220Z,88.66
2022-12-05T22:25:39.736Z,88.72
2022-12-05T22:30:47.451Z,88.71
2022-12-05T22:35:54.494Z,88.71
2022-12-05T22:41:00.483Z,88.77
2022-12-05T22:46:08.845Z,88.93
2022-12-05T22:51:13.085Z,88.84
2022-12-05T22:56:19.165Z,88.92
2022-12-05T23:01:28.114Z,88.93
2022-12-05T23:06:33.262Z,88.86
2022-12-05T23:11:37.084Z,88.94
2022-12-05T23:16:40.505Z,89.10
2022-12-05T23:21:43.501Z,89.00
2022-12-05T23:26:46.601Z,89.02
2022-12-05T23:31:49.676Z,88.94
2022-12-05T23:36:52.712Z,89.05
2022-12-05T23:41:56.127Z,89.12
2022-12-05T23:46:59.264Z,88.91
2022-12-05T23:52:02.336Z,88.88
2022-12-05T23:57:05.952Z,89.07
